Urb Palmar Norte, Puerto Rico
Current Conditions -  °F | °C
As of 8:56 PM on Thursday 18 Dec 2014 (Local Time) from TJSJ Reporting Station
Scattered Clouds Scattered Clouds  
Wind Chill: 77°   Ceiling: Unl
Heat Index: 78°   Visibility: 10mi
Dew Point: 72°   Wind: 0mph
Humidity: 84%   Direction: NA
Pressure: 29.99"   Gusts: NA
Location:  18.4048°N, 65.9789°W
Report Text: TJSJ 190056Z 00000KT 10SM FEW026 SCT031 SCT060 25/22 A2999 RMK AO2 RAB34E47 SLP156 VCSH SW-NW P0000 T02500222
Loading
Personal Weather Stations






























Interactive Weather Map New forecast layout! Learn more

10-Day Weather Forecast

Advertisements
Track Severe Weather on mobile